sensor_id;sensor_type;location;lat;lon;timestamp;P1;durP1;ratioP1;P2;durP2;ratioP2
78794;SDS011;68144;50.892;3.064;2023-06-04T06:24:08;1.90;;;1.10;;
78794;SDS011;68144;50.892;3.064;2023-06-04T06:24:39;1.80;;;1.00;;
78794;SDS011;68144;50.892;3.064;2023-06-04T06:25:12;2.20;;;1.20;;
78794;SDS011;68144;50.892;3.064;2023-06-04T06:25:47;2.20;;;1.20;;
78794;SDS011;68144;50.892;3.064;2023-06-04T06:26:24;1.80;;;1.10;;
78794;SDS011;68144;50.892;3.064;2023-06-04T06:26:57;1.50;;;1.30;;
78794;SDS011;68144;50.892;3.064;2023-06-04T06:27:28;2.70;;;1.40;;
78794;SDS011;68144;50.892;3.064;2023-06-04T06:27:59;2.00;;;1.50;;
78794;SDS011;68144;50.892;3.064;2023-06-04T06:28:30;1.80;;;1.10;;
78794;SDS011;68144;50.892;3.064;2023-06-04T06:29:01;2.10;;;1.30;;
78794;SDS011;68144;50.892;3.064;2023-06-04T06:29:33;2.40;;;0.90;;
78794;SDS011;68144;50.892;3.064;2023-06-04T06:30:07;3.70;;;1.20;;
78794;SDS011;68144;50.892;3.064;2023-06-04T06:30:38;1.50;;;1.10;;
78794;SDS011;68144;50.892;3.064;2023-06-04T06:31:09;2.20;;;1.20;;
78794;SDS011;68144;50.892;3.064;2023-06-04T06:31:39;2.80;;;1.30;;
78794;SDS011;68144;50.892;3.064;2023-06-04T06:32:10;2.00;;;1.10;;
78794;SDS011;68144;50.892;3.064;2023-06-04T06:32:41;2.00;;;1.10;;
78794;SDS011;68144;50.892;3.064;2023-06-04T06:33:11;1.90;;;1.20;;
78794;SDS011;68144;50.892;3.064;2023-06-04T06:33:42;2.40;;;1.30;;
78794;SDS011;68144;50.892;3.064;2023-06-04T06:34:12;2.20;;;1.30;;
78794;SDS011;68144;50.892;3.064;2023-06-04T06:34:43;2.00;;;1.10;;
78794;SDS011;68144;50.892;3.064;2023-06-04T06:35:15;1.80;;;1.10;;
78794;SDS011;68144;50.892;3.064;2023-06-04T06:35:49;2.30;;;1.30;;
78794;SDS011;68144;50.892;3.064;2023-06-04T06:36:20;2.00;;;1.40;;
78794;SDS011;68144;50.892;3.064;2023-06-04T06:36:51;2.10;;;1.10;;
78794;SDS011;68144;50.892;3.064;2023-06-04T06:37:21;2.10;;;1.00;;
78794;SDS011;68144;50.892;3.064;2023-06-04T06:37:52;2.70;;;1.00;;
78794;SDS011;68144;50.892;3.064;2023-06-04T06:38:30;2.10;;;1.10;;
78794;SDS011;68144;50.892;3.064;2023-06-04T06:39:02;2.30;;;1.30;;
78794;SDS011;68144;50.892;3.064;2023-06-04T06:39:36;3.70;;;1.10;;
78794;SDS011;68144;50.892;3.064;2023-06-04T06:40:08;2.00;;;1.10;;
78794;SDS011;68144;50.892;3.064;2023-06-04T06:41:10;2.20;;;1.30;;
78794;SDS011;68144;50.892;3.064;2023-06-04T06:41:41;2.10;;;1.30;;
78794;SDS011;68144;50.892;3.064;2023-06-04T06:42:15;2.20;;;1.40;;
78794;SDS011;68144;50.892;3.064;2023-06-04T06:42:50;2.30;;;1.20;;
78794;SDS011;68144;50.892;3.064;2023-06-04T06:43:21;2.40;;;1.20;;
78794;SDS011;68144;50.892;3.064;2023-06-04T06:43:51;2.40;;;1.20;;
78794;SDS011;68144;50.892;3.064;2023-06-04T06:44:22;1.80;;;1.30;;
78794;SDS011;68144;50.892;3.064;2023-06-04T06:44:52;2.40;;;1.20;;
78794;SDS011;68144;50.892;3.064;2023-06-04T06:45:23;1.90;;;1.40;;
78794;SDS011;68144;50.892;3.064;2023-06-04T06:45:54;3.10;;;1.80;;
78794;SDS011;68144;50.892;3.064;2023-06-04T06:46:25;2.20;;;1.20;;
78794;SDS011;68144;50.892;3.064;2023-06-04T06:46:55;1.60;;;0.80;;
78794;SDS011;68144;50.892;3.064;2023-06-04T06:47:26;1.50;;;0.80;;
78794;SDS011;68144;50.892;3.064;2023-06-04T06:47:56;2.10;;;1.00;;
78794;SDS011;68144;50.892;3.064;2023-06-04T06:48:27;2.60;;;1.10;;
78794;SDS011;68144;50.892;3.064;2023-06-04T06:48:58;2.50;;;1.70;;
78794;SDS011;68144;50.892;3.064;2023-06-04T06:49:28;2.10;;;1.20;;
78794;SDS011;68144;50.892;3.064;2023-06-04T06:49:59;1.90;;;1.00;;
78794;SDS011;68144;50.892;3.064;2023-06-04T06:50:30;2.50;;;1.10;;
78794;SDS011;68144;50.892;3.064;2023-06-04T06:51:01;2.50;;;1.10;;
78794;SDS011;68144;50.892;3.064;2023-06-04T06:51:31;1.80;;;1.30;;
78794;SDS011;68144;50.892;3.064;2023-06-04T06:52:02;2.20;;;1.10;;
78794;SDS011;68144;50.892;3.064;2023-06-04T06:52:33;1.60;;;0.90;;
78794;SDS011;68144;50.892;3.064;2023-06-04T06:53:03;1.80;;;1.00;;
78794;SDS011;68144;50.892;3.064;2023-06-04T06:53:34;2.60;;;1.80;;
78794;SDS011;68144;50.892;3.064;2023-06-04T06:54:05;2.70;;;1.10;;
78794;SDS011;68144;50.892;3.064;2023-06-04T06:54:35;1.80;;;1.00;;
78794;SDS011;68144;50.892;3.064;2023-06-04T06:55:06;2.10;;;1.40;;
78794;SDS011;68144;50.892;3.064;2023-06-04T06:55:37;2.60;;;1.00;;
78794;SDS011;68144;50.892;3.064;2023-06-04T06:56:08;2.80;;;1.50;;
78794;SDS011;68144;50.892;3.064;2023-06-04T06:56:38;2.10;;;1.30;;
78794;SDS011;68144;50.892;3.064;2023-06-04T06:57:09;1.60;;;1.40;;
78794;SDS011;68144;50.892;3.064;2023-06-04T06:57:39;2.80;;;0.80;;
78794;SDS011;68144;50.892;3.064;2023-06-04T06:58:10;2.70;;;1.10;;
78794;SDS011;68144;50.892;3.064;2023-06-04T06:58:40;2.30;;;1.00;;
78794;SDS011;68144;50.892;3.064;2023-06-04T06:59:11;2.60;;;0.90;;
78794;SDS011;68144;50.892;3.064;2023-06-04T06:59:41;2.10;;;1.30;;
78794;SDS011;68144;50.892;3.064;2023-06-04T07:00:12;2.00;;;1.10;;
78794;SDS011;68144;50.892;3.064;2023-06-04T07:00:43;1.80;;;0.90;;
78794;SDS011;68144;50.892;3.064;2023-06-04T07:01:13;1.70;;;1.10;;
78794;SDS011;68144;50.892;3.064;2023-06-04T07:01:44;1.80;;;1.10;;
78794;SDS011;68144;50.892;3.064;2023-06-04T07:02:15;2.00;;;1.10;;
78794;SDS011;68144;50.892;3.064;2023-06-04T07:02:45;1.90;;;1.10;;
78794;SDS011;68144;50.892;3.064;2023-06-04T07:03:16;1.80;;;1.10;;
78794;SDS011;68144;50.892;3.064;2023-06-04T07:03:47;1.70;;;1.10;;
78794;SDS011;68144;50.892;3.064;2023-06-04T07:04:17;1.70;;;0.90;;
78794;SDS011;68144;50.892;3.064;2023-06-04T07:04:48;2.00;;;1.10;;
78794;SDS011;68144;50.892;3.064;2023-06-04T07:05:19;2.00;;;1.10;;
78794;SDS011;68144;50.892;3.064;2023-06-04T07:05:49;2.20;;;1.10;;
78794;SDS011;68144;50.892;3.064;2023-06-04T07:06:20;2.50;;;1.40;;
78794;SDS011;68144;50.892;3.064;2023-06-04T07:06:51;3.60;;;1.10;;
78794;SDS011;68144;50.892;3.064;2023-06-04T07:07:21;2.10;;;0.90;;
78794;SDS011;68144;50.892;3.064;2023-06-04T07:07:51;1.80;;;0.90;;
78794;SDS011;68144;50.892;3.064;2023-06-04T07:08:22;1.80;;;1.30;;
78794;SDS011;68144;50.892;3.064;2023-06-04T07:08:53;3.00;;;1.30;;
78794;SDS011;68144;50.892;3.064;2023-06-04T07:09:24;2.00;;;1.10;;
78794;SDS011;68144;50.892;3.064;2023-06-04T07:09:54;2.50;;;1.00;;
78794;SDS011;68144;50.892;3.064;2023-06-04T07:10:25;1.50;;;1.20;;
78794;SDS011;68144;50.892;3.064;2023-06-04T07:10:55;1.30;;;0.90;;
78794;SDS011;68144;50.892;3.064;2023-06-04T07:11:26;1.50;;;1.20;;
78794;SDS011;68144;50.892;3.064;2023-06-04T07:11:57;2.50;;;1.00;;
78794;SDS011;68144;50.892;3.064;2023-06-04T07:12:27;3.50;;;0.90;;
78794;SDS011;68144;50.892;3.064;2023-06-04T07:12:58;2.30;;;0.90;;
78794;SDS011;68144;50.892;3.064;2023-06-04T07:13:28;1.50;;;1.00;;
78794;SDS011;68144;50.892;3.064;2023-06-04T07:14:02;1.60;;;1.10;;
78794;SDS011;68144;50.892;3.064;2023-06-04T07:14:32;3.00;;;1.30;;
78794;SDS011;68144;50.892;3.064;2023-06-04T07:15:03;2.90;;;1.10;;
78794;SDS011;68144;50.892;3.064;2023-06-04T07:15:34;2.70;;;1.30;;
78794;SDS011;68144;50.892;3.064;2023-06-04T07:16:05;2.00;;;1.20;;
78794;SDS011;68144;50.892;3.064;2023-06-04T07:16:35;2.30;;;1.70;;
78794;SDS011;68144;50.892;3.064;2023-06-04T07:17:06;4.10;;;0.90;;
78794;SDS011;68144;50.892;3.064;2023-06-04T07:17:36;2.10;;;1.20;;
78794;SDS011;68144;50.892;3.064;2023-06-04T07:18:07;3.90;;;1.20;;
78794;SDS011;68144;50.892;3.064;2023-06-04T07:18:37;2.20;;;1.10;;
78794;SDS011;68144;50.892;3.064;2023-06-04T07:19:08;2.20;;;1.10;;
78794;SDS011;68144;50.892;3.064;2023-06-04T07:19:38;3.00;;;1.10;;
78794;SDS011;68144;50.892;3.064;2023-06-04T07:20:09;2.70;;;1.70;;
78794;SDS011;68144;50.892;3.064;2023-06-04T07:20:40;3.10;;;1.20;;
78794;SDS011;68144;50.892;3.064;2023-06-04T07:21:10;2.20;;;1.30;;
78794;SDS011;68144;50.892;3.064;2023-06-04T07:21:41;3.20;;;1.20;;
78794;SDS011;68144;50.892;3.064;2023-06-04T07:22:12;2.20;;;1.00;;
78794;SDS011;68144;50.892;3.064;2023-06-04T07:22:42;2.20;;;0.90;;
78794;SDS011;68144;50.892;3.064;2023-06-04T07:23:14;2.20;;;1.30;;
78794;SDS011;68144;50.892;3.064;2023-06-04T07:23:46;1.90;;;1.10;;
78794;SDS011;68144;50.892;3.064;2023-06-04T07:24:19;1.80;;;1.10;;
78794;SDS011;68144;50.892;3.064;2023-06-04T07:24:50;1.70;;;1.00;;
78794;SDS011;68144;50.892;3.064;2023-06-04T07:25:20;1.50;;;1.00;;
78794;SDS011;68144;50.892;3.064;2023-06-04T07:25:53;3.00;;;1.00;;
78794;SDS011;68144;50.892;3.064;2023-06-04T07:26:23;2.00;;;1.10;;
78794;SDS011;68144;50.892;3.064;2023-06-04T07:26:56;1.60;;;1.10;;
78794;SDS011;68144;50.892;3.064;2023-06-04T07:27:27;2.00;;;1.20;;
78794;SDS011;68144;50.892;3.064;2023-06-04T07:27:58;1.90;;;1.00;;
78794;SDS011;68144;50.892;3.064;2023-06-04T07:28:28;1.40;;;1.00;;
78794;SDS011;68144;50.892;3.064;2023-06-04T07:28:59;2.40;;;1.60;;
78794;SDS011;68144;50.892;3.064;2023-06-04T07:29:30;3.30;;;1.40;;
78794;SDS011;68144;50.892;3.064;2023-06-04T07:30:01;1.80;;;1.00;;
78794;SDS011;68144;50.892;3.064;2023-06-04T07:30:32;1.70;;;1.10;;
78794;SDS011;68144;50.892;3.064;2023-06-04T07:31:02;3.00;;;1.40;;
78794;SDS011;68144;50.892;3.064;2023-06-04T07:31:33;1.60;;;1.10;;
78794;SDS011;68144;50.892;3.064;2023-06-04T07:32:04;3.00;;;1.30;;
78794;SDS011;68144;50.892;3.064;2023-06-04T07:32:35;1.90;;;1.10;;
78794;SDS011;68144;50.892;3.064;2023-06-04T07:33:05;2.40;;;1.10;;
78794;SDS011;68144;50.892;3.064;2023-06-04T07:33:37;2.10;;;0.90;;
78794;SDS011;68144;50.892;3.064;2023-06-04T07:34:13;2.00;;;1.80;;
78794;SDS011;68144;50.892;3.064;2023-06-04T07:34:44;1.80;;;1.00;;
78794;SDS011;68144;50.892;3.064;2023-06-04T07:35:15;2.00;;;1.80;;
78794;SDS011;68144;50.892;3.064;2023-06-04T07:35:46;2.30;;;1.30;;
78794;SDS011;68144;50.892;3.064;2023-06-04T07:36:22;3.00;;;1.30;;
78794;SDS011;68144;50.892;3.064;2023-06-04T07:36:53;2.30;;;1.20;;
78794;SDS011;68144;50.892;3.064;2023-06-04T07:37:23;1.50;;;0.80;;
78794;SDS011;68144;50.892;3.064;2023-06-04T07:37:53;2.90;;;0.90;;
78794;SDS011;68144;50.892;3.064;2023-06-04T07:38:24;2.40;;;1.10;;
78794;SDS011;68144;50.892;3.064;2023-06-04T07:38:55;1.70;;;0.80;;
78794;SDS011;68144;50.892;3.064;2023-06-04T07:39:26;3.60;;;0.90;;
78794;SDS011;68144;50.892;3.064;2023-06-04T07:39:56;1.90;;;1.10;;
78794;SDS011;68144;50.892;3.064;2023-06-04T07:40:27;3.60;;;1.20;;
78794;SDS011;68144;50.892;3.064;2023-06-04T07:40:57;3.00;;;0.90;;
78794;SDS011;68144;50.892;3.064;2023-06-04T07:41:28;2.90;;;1.30;;
78794;SDS011;68144;50.892;3.064;2023-06-04T07:41:58;2.30;;;1.30;;
78794;SDS011;68144;50.892;3.064;2023-06-04T07:42:29;1.70;;;1.00;;
78794;SDS011;68144;50.892;3.064;2023-06-04T07:43:04;2.40;;;1.10;;
78794;SDS011;68144;50.892;3.064;2023-06-04T07:43:34;1.90;;;1.20;;
78794;SDS011;68144;50.892;3.064;2023-06-04T07:44:05;1.80;;;1.10;;
78794;SDS011;68144;50.892;3.064;2023-06-04T07:44:36;1.70;;;1.00;;
78794;SDS011;68144;50.892;3.064;2023-06-04T07:45:08;2.90;;;1.00;;
78794;SDS011;68144;50.892;3.064;2023-06-04T07:45:39;2.30;;;1.10;;
78794;SDS011;68144;50.892;3.064;2023-06-04T07:46:10;2.30;;;1.30;;
78794;SDS011;68144;50.892;3.064;2023-06-04T07:46:41;1.70;;;1.00;;
78794;SDS011;68144;50.892;3.064;2023-06-04T07:47:11;1.90;;;1.00;;
78794;SDS011;68144;50.892;3.064;2023-06-04T07:47:42;2.30;;;1.10;;
78794;SDS011;68144;50.892;3.064;2023-06-04T07:48:13;2.30;;;1.30;;
78794;SDS011;68144;50.892;3.064;2023-06-04T07:48:44;2.60;;;1.20;;
78794;SDS011;68144;50.892;3.064;2023-06-04T07:49:15;2.50;;;1.10;;
78794;SDS011;68144;50.892;3.064;2023-06-04T07:49:45;2.90;;;1.00;;
78794;SDS011;68144;50.892;3.064;2023-06-04T07:50:16;3.00;;;1.20;;
78794;SDS011;68144;50.892;3.064;2023-06-04T07:50:46;2.00;;;1.50;;
78794;SDS011;68144;50.892;3.064;2023-06-04T07:51:17;1.90;;;1.00;;
78794;SDS011;68144;50.892;3.064;2023-06-04T07:51:49;2.50;;;1.00;;
78794;SDS011;68144;50.892;3.064;2023-06-04T07:52:20;3.20;;;1.60;;
78794;SDS011;68144;50.892;3.064;2023-06-04T07:52:50;2.40;;;1.10;;
78794;SDS011;68144;50.892;3.064;2023-06-04T07:53:21;2.40;;;1.00;;
78794;SDS011;68144;50.892;3.064;2023-06-04T07:53:54;2.90;;;1.20;;
78794;SDS011;68144;50.892;3.064;2023-06-04T07:54:24;1.90;;;0.90;;
78794;SDS011;68144;50.892;3.064;2023-06-04T07:54:56;1.80;;;1.30;;
78794;SDS011;68144;50.892;3.064;2023-06-04T07:55:26;2.40;;;0.90;;
78794;SDS011;68144;50.892;3.064;2023-06-04T07:55:57;3.20;;;1.30;;
78794;SDS011;68144;50.892;3.064;2023-06-04T07:56:28;2.70;;;0.90;;
78794;SDS011;68144;50.892;3.064;2023-06-04T07:56:59;3.20;;;1.10;;
78794;SDS011;68144;50.892;3.064;2023-06-04T07:57:29;2.40;;;1.90;;
78794;SDS011;68144;50.892;3.064;2023-06-04T07:58:00;3.20;;;1.40;;
78794;SDS011;68144;50.892;3.064;2023-06-04T07:58:30;2.70;;;1.10;;
78794;SDS011;68144;50.892;3.064;2023-06-04T07:59:01;3.40;;;1.10;;
78794;SDS011;68144;50.892;3.064;2023-06-04T07:59:32;3.20;;;1.30;;
78794;SDS011;68144;50.892;3.064;2023-06-04T08:00:02;2.60;;;1.20;;
78794;SDS011;68144;50.892;3.064;2023-06-04T08:00:42;2.50;;;1.20;;
78794;SDS011;68144;50.892;3.064;2023-06-04T08:01:12;3.10;;;1.30;;
78794;SDS011;68144;50.892;3.064;2023-06-04T08:01:43;3.50;;;1.10;;
78794;SDS011;68144;50.892;3.064;2023-06-04T08:02:14;3.50;;;1.10;;
78794;SDS011;68144;50.892;3.064;2023-06-04T08:02:45;3.70;;;1.20;;
78794;SDS011;68144;50.892;3.064;2023-06-04T08:03:15;3.30;;;1.20;;
78794;SDS011;68144;50.892;3.064;2023-06-04T08:03:46;2.70;;;1.30;;
78794;SDS011;68144;50.892;3.064;2023-06-04T08:04:17;2.40;;;1.20;;
78794;SDS011;68144;50.892;3.064;2023-06-04T08:04:48;5.40;;;1.70;;
78794;SDS011;68144;50.892;3.064;2023-06-04T08:05:19;2.10;;;1.00;;
78794;SDS011;68144;50.892;3.064;2023-06-04T08:05:50;2.40;;;1.20;;
78794;SDS011;68144;50.892;3.064;2023-06-04T08:06:20;3.30;;;1.90;;
78794;SDS011;68144;50.892;3.064;2023-06-04T08:06:51;3.40;;;1.40;;
78794;SDS011;68144;50.892;3.064;2023-06-04T08:07:22;1.50;;;0.90;;
78794;SDS011;68144;50.892;3.064;2023-06-04T08:07:53;2.40;;;1.10;;
78794;SDS011;68144;50.892;3.064;2023-06-04T08:08:23;3.00;;;1.30;;
78794;SDS011;68144;50.892;3.064;2023-06-04T08:08:54;2.00;;;1.20;;
78794;SDS011;68144;50.892;3.064;2023-06-04T08:09:25;4.60;;;1.70;;
78794;SDS011;68144;50.892;3.064;2023-06-04T08:09:55;2.50;;;1.40;;
78794;SDS011;68144;50.892;3.064;2023-06-04T08:10:27;3.60;;;1.60;;
78794;SDS011;68144;50.892;3.064;2023-06-04T08:10:57;4.20;;;1.30;;
78794;SDS011;68144;50.892;3.064;2023-06-04T08:11:28;4.10;;;1.10;;
78794;SDS011;68144;50.892;3.064;2023-06-04T08:11:59;3.30;;;1.40;;
78794;SDS011;68144;50.892;3.064;2023-06-04T08:12:30;3.30;;;1.30;;
78794;SDS011;68144;50.892;3.064;2023-06-04T08:13:00;4.80;;;1.40;;
78794;SDS011;68144;50.892;3.064;2023-06-04T08:13:31;5.60;;;1.30;;
78794;SDS011;68144;50.892;3.064;2023-06-04T08:14:01;2.60;;;1.10;;
78794;SDS011;68144;50.892;3.064;2023-06-04T08:14:32;4.30;;;1.40;;
78794;SDS011;68144;50.892;3.064;2023-06-04T08:15:02;2.80;;;1.40;;
78794;SDS011;68144;50.892;3.064;2023-06-04T08:15:33;2.70;;;1.20;;
78794;SDS011;68144;50.892;3.064;2023-06-04T08:16:06;2.10;;;1.00;;
78794;SDS011;68144;50.892;3.064;2023-06-04T08:16:37;4.00;;;1.10;;
78794;SDS011;68144;50.892;3.064;2023-06-04T08:17:08;3.80;;;1.50;;
78794;SDS011;68144;50.892;3.064;2023-06-04T08:17:38;3.00;;;1.30;;
78794;SDS011;68144;50.892;3.064;2023-06-04T08:18:09;4.60;;;1.30;;
78794;SDS011;68144;50.892;3.064;2023-06-04T08:18:40;4.70;;;1.50;;
78794;SDS011;68144;50.892;3.064;2023-06-04T08:19:11;3.20;;;1.50;;
78794;SDS011;68144;50.892;3.064;2023-06-04T08:19:41;3.20;;;1.50;;
78794;SDS011;68144;50.892;3.064;2023-06-04T08:20:12;4.20;;;1.40;;
78794;SDS011;68144;50.892;3.064;2023-06-04T08:20:42;3.10;;;1.30;;
78794;SDS011;68144;50.892;3.064;2023-06-04T08:21:13;4.80;;;1.40;;
78794;SDS011;68144;50.892;3.064;2023-06-04T08:21:47;1.80;;;1.40;;
78794;SDS011;68144;50.892;3.064;2023-06-04T08:22:18;3.10;;;1.30;;
78794;SDS011;68144;50.892;3.064;2023-06-04T08:22:48;5.00;;;1.70;;
78794;SDS011;68144;50.892;3.064;2023-06-04T08:23:21;3.20;;;1.40;;
78794;SDS011;68144;50.892;3.064;2023-06-04T08:23:52;3.70;;;1.40;;
78794;SDS011;68144;50.892;3.064;2023-06-04T08:24:22;4.30;;;1.50;;
78794;SDS011;68144;50.892;3.064;2023-06-04T08:24:53;2.50;;;1.00;;
78794;SDS011;68144;50.892;3.064;2023-06-04T08:25:23;3.00;;;1.40;;
78794;SDS011;68144;50.892;3.064;2023-06-04T08:25:54;3.20;;;1.40;;
78794;SDS011;68144;50.892;3.064;2023-06-04T08:26:24;4.40;;;1.50;;
78794;SDS011;68144;50.892;3.064;2023-06-04T08:26:57;3.60;;;1.40;;
78794;SDS011;68144;50.892;3.064;2023-06-04T08:27:27;3.40;;;1.50;;
78794;SDS011;68144;50.892;3.064;2023-06-04T08:27:58;3.20;;;1.20;;
78794;SDS011;68144;50.892;3.064;2023-06-04T08:28:28;3.40;;;1.30;;
78794;SDS011;68144;50.892;3.064;2023-06-04T08:29:01;3.40;;;1.30;;
78794;SDS011;68144;50.892;3.064;2023-06-04T08:29:34;4.20;;;1.70;;
78794;SDS011;68144;50.892;3.064;2023-06-04T08:30:09;3.80;;;1.40;;
78794;SDS011;68144;50.892;3.064;2023-06-04T08:30:39;2.90;;;1.30;;
78794;SDS011;68144;50.892;3.064;2023-06-04T08:31:10;3.90;;;1.60;;
78794;SDS011;68144;50.892;3.064;2023-06-04T08:31:40;3.50;;;1.40;;
78794;SDS011;68144;50.892;3.064;2023-06-04T08:32:11;3.60;;;1.60;;
78794;SDS011;68144;50.892;3.064;2023-06-04T08:32:41;4.40;;;1.60;;
78794;SDS011;68144;50.892;3.064;2023-06-04T08:33:12;3.50;;;1.70;;
78794;SDS011;68144;50.892;3.064;2023-06-04T08:33:44;3.60;;;1.40;;
78794;SDS011;68144;50.892;3.064;2023-06-04T08:34:16;3.70;;;1.70;;
78794;SDS011;68144;50.892;3.064;2023-06-04T08:34:46;4.30;;;1.50;;
78794;SDS011;68144;50.892;3.064;2023-06-04T08:35:17;3.90;;;1.40;;
78794;SDS011;68144;50.892;3.064;2023-06-04T08:35:50;5.70;;;2.00;;
78794;SDS011;68144;50.892;3.064;2023-06-04T08:36:20;3.70;;;1.50;;
78794;SDS011;68144;50.892;3.064;2023-06-04T08:36:51;3.10;;;1.80;;
78794;SDS011;68144;50.892;3.064;2023-06-04T08:37:21;2.90;;;1.60;;
78794;SDS011;68144;50.892;3.064;2023-06-04T08:37:54;5.60;;;1.70;;
78794;SDS011;68144;50.892;3.064;2023-06-04T08:38:25;2.70;;;1.50;;
78794;SDS011;68144;50.892;3.064;2023-06-04T08:38:55;5.30;;;1.80;;
78794;SDS011;68144;50.892;3.064;2023-06-04T08:39:26;4.10;;;1.50;;
78794;SDS011;68144;50.892;3.064;2023-06-04T08:39:56;2.60;;;1.10;;
78794;SDS011;68144;50.892;3.064;2023-06-04T08:40:27;2.50;;;1.40;;
78794;SDS011;68144;50.892;3.064;2023-06-04T08:40:58;4.40;;;1.60;;
78794;SDS011;68144;50.892;3.064;2023-06-04T08:41:45;4.70;;;2.10;;
78794;SDS011;68144;50.892;3.064;2023-06-04T08:42:22;4.70;;;1.90;;
78794;SDS011;68144;50.892;3.064;2023-06-04T08:42:55;5.80;;;1.70;;
78794;SDS011;68144;50.892;3.064;2023-06-04T08:43:29;3.80;;;1.60;;
78794;SDS011;68144;50.892;3.064;2023-06-04T08:43:59;2.60;;;1.30;;
78794;SDS011;68144;50.892;3.064;2023-06-04T08:44:32;5.30;;;2.00;;
78794;SDS011;68144;50.892;3.064;2023-06-04T08:45:03;3.10;;;1.70;;
78794;SDS011;68144;50.892;3.064;2023-06-04T08:45:36;3.30;;;2.00;;
78794;SDS011;68144;50.892;3.064;2023-06-04T08:46:09;3.60;;;1.60;;
78794;SDS011;68144;50.892;3.064;2023-06-04T08:46:40;4.00;;;2.20;;
78794;SDS011;68144;50.892;3.064;2023-06-04T08:47:11;4.40;;;2.30;;
78794;SDS011;68144;50.892;3.064;2023-06-04T08:47:44;2.80;;;1.50;;
78794;SDS011;68144;50.892;3.064;2023-06-04T08:48:18;4.20;;;2.00;;
78794;SDS011;68144;50.892;3.064;2023-06-04T08:48:50;4.90;;;1.70;;
78794;SDS011;68144;50.892;3.064;2023-06-04T08:49:21;3.60;;;1.70;;
78794;SDS011;68144;50.892;3.064;2023-06-04T08:49:52;4.20;;;1.90;;
78794;SDS011;68144;50.892;3.064;2023-06-04T08:50:25;4.30;;;2.00;;
78794;SDS011;68144;50.892;3.064;2023-06-04T08:50:56;5.20;;;1.90;;
78794;SDS011;68144;50.892;3.064;2023-06-04T08:51:27;3.80;;;2.30;;
78794;SDS011;68144;50.892;3.064;2023-06-04T08:51:58;5.00;;;1.60;;
78794;SDS011;68144;50.892;3.064;2023-06-04T08:52:29;2.50;;;1.40;;
78794;SDS011;68144;50.892;3.064;2023-06-04T08:53:00;3.30;;;1.90;;
78794;SDS011;68144;50.892;3.064;2023-06-04T08:53:30;4.00;;;2.50;;
78794;SDS011;68144;50.892;3.064;2023-06-04T08:54:01;2.90;;;2.20;;
78794;SDS011;68144;50.892;3.064;2023-06-04T08:54:34;3.20;;;1.70;;
78794;SDS011;68144;50.892;3.064;2023-06-04T08:55:05;4.20;;;1.70;;
78794;SDS011;68144;50.892;3.064;2023-06-04T08:55:36;4.30;;;1.90;;
78794;SDS011;68144;50.892;3.064;2023-06-04T08:56:07;3.20;;;1.80;;
78794;SDS011;68144;50.892;3.064;2023-06-04T08:56:38;4.70;;;1.70;;
78794;SDS011;68144;50.892;3.064;2023-06-04T08:57:09;2.80;;;1.60;;
78794;SDS011;68144;50.892;3.064;2023-06-04T08:57:40;3.70;;;1.50;;
78794;SDS011;68144;50.892;3.064;2023-06-04T08:58:10;2.90;;;1.80;;
78794;SDS011;68144;50.892;3.064;2023-06-04T08:58:41;3.20;;;1.70;;
78794;SDS011;68144;50.892;3.064;2023-06-04T08:59:12;3.00;;;1.60;;
78794;SDS011;68144;50.892;3.064;2023-06-04T08:59:44;2.40;;;1.80;;
78794;SDS011;68144;50.892;3.064;2023-06-04T09:00:18;4.50;;;1.70;;
78794;SDS011;68144;50.892;3.064;2023-06-04T09:00:49;5.10;;;2.20;;
78794;SDS011;68144;50.892;3.064;2023-06-04T09:01:19;3.00;;;2.00;;
78794;SDS011;68144;50.892;3.064;2023-06-04T09:01:53;3.30;;;2.10;;
78794;SDS011;68144;50.892;3.064;2023-06-04T09:02:25;4.00;;;2.00;;
78794;SDS011;68144;50.892;3.064;2023-06-04T09:03:02;2.80;;;1.80;;
78794;SDS011;68144;50.892;3.064;2023-06-04T09:03:36;4.30;;;1.90;;
78794;SDS011;68144;50.892;3.064;2023-06-04T09:04:07;3.00;;;1.70;;
78794;SDS011;68144;50.892;3.064;2023-06-04T09:04:38;3.60;;;1.90;;
78794;SDS011;68144;50.892;3.064;2023-06-04T09:05:09;2.80;;;1.90;;
78794;SDS011;68144;50.892;3.064;2023-06-04T09:05:40;3.50;;;2.30;;
78794;SDS011;68144;50.892;3.064;2023-06-04T09:06:17;2.70;;;1.80;;
78794;SDS011;68144;50.892;3.064;2023-06-04T09:06:48;2.60;;;1.70;;
78794;SDS011;68144;50.892;3.064;2023-06-04T09:07:18;3.80;;;1.90;;
78794;SDS011;68144;50.892;3.064;2023-06-04T09:07:52;4.00;;;1.90;;
78794;SDS011;68144;50.892;3.064;2023-06-04T09:08:27;4.10;;;2.20;;
78794;SDS011;68144;50.892;3.064;2023-06-04T09:09:06;3.10;;;2.10;;
78794;SDS011;68144;50.892;3.064;2023-06-04T09:09:40;3.00;;;1.90;;
78794;SDS011;68144;50.892;3.064;2023-06-04T09:10:11;3.00;;;2.00;;
78794;SDS011;68144;50.892;3.064;2023-06-04T09:10:46;5.20;;;2.00;;
78794;SDS011;68144;50.892;3.064;2023-06-04T09:11:19;3.40;;;2.40;;
78794;SDS011;68144;50.892;3.064;2023-06-04T09:11:52;2.70;;;1.70;;
78794;SDS011;68144;50.892;3.064;2023-06-04T09:12:27;3.40;;;1.80;;
78794;SDS011;68144;50.892;3.064;2023-06-04T09:12:59;3.10;;;1.80;;
78794;SDS011;68144;50.892;3.064;2023-06-04T09:13:31;5.00;;;2.00;;
78794;SDS011;68144;50.892;3.064;2023-06-04T09:14:38;3.60;;;2.20;;
78794;SDS011;68144;50.892;3.064;2023-06-04T09:15:08;3.20;;;2.10;;
78794;SDS011;68144;50.892;3.064;2023-06-04T09:15:39;3.70;;;2.00;;
78794;SDS011;68144;50.892;3.064;2023-06-04T09:16:09;2.90;;;2.10;;
78794;SDS011;68144;50.892;3.064;2023-06-04T09:16:47;4.30;;;2.00;;
78794;SDS011;68144;50.892;3.064;2023-06-04T09:17:22;2.60;;;1.80;;
78794;SDS011;68144;50.892;3.064;2023-06-04T09:17:53;3.30;;;2.00;;
78794;SDS011;68144;50.892;3.064;2023-06-04T09:18:24;3.60;;;2.00;;
78794;SDS011;68144;50.892;3.064;2023-06-04T09:18:56;3.90;;;2.20;;
78794;SDS011;68144;50.892;3.064;2023-06-04T09:19:27;5.60;;;2.40;;
78794;SDS011;68144;50.892;3.064;2023-06-04T09:19:58;3.60;;;1.90;;
78794;SDS011;68144;50.892;3.064;2023-06-04T09:20:28;3.20;;;2.00;;
78794;SDS011;68144;50.892;3.064;2023-06-04T09:21:45;2.60;;;2.10;;
78794;SDS011;68144;50.892;3.064;2023-06-04T09:22:31;3.70;;;2.20;;
78794;SDS011;68144;50.892;3.064;2023-06-04T09:23:13;4.60;;;2.20;;
78794;SDS011;68144;50.892;3.064;2023-06-04T09:23:51;4.50;;;2.20;;
78794;SDS011;68144;50.892;3.064;2023-06-04T09:24:25;3.10;;;2.20;;
78794;SDS011;68144;50.892;3.064;2023-06-04T09:25:18;3.50;;;1.80;;
78794;SDS011;68144;50.892;3.064;2023-06-04T09:25:52;3.70;;;2.10;;
78794;SDS011;68144;50.892;3.064;2023-06-04T09:26:54;3.50;;;2.20;;
78794;SDS011;68144;50.892;3.064;2023-06-04T09:27:25;4.40;;;1.90;;
78794;SDS011;68144;50.892;3.064;2023-06-04T09:28:05;4.30;;;2.10;;
78794;SDS011;68144;50.892;3.064;2023-06-04T09:28:44;5.00;;;1.80;;
78794;SDS011;68144;50.892;3.064;2023-06-04T09:29:15;6.10;;;2.70;;
78794;SDS011;68144;50.892;3.064;2023-06-04T09:29:49;4.70;;;2.60;;
78794;SDS011;68144;50.892;3.064;2023-06-04T09:30:21;3.20;;;1.90;;
78794;SDS011;68144;50.892;3.064;2023-06-04T09:30:53;3.50;;;2.60;;
78794;SDS011;68144;50.892;3.064;2023-06-04T09:31:23;5.00;;;2.40;;
78794;SDS011;68144;50.892;3.064;2023-06-04T09:31:57;3.30;;;2.30;;
78794;SDS011;68144;50.892;3.064;2023-06-04T09:33:08;4.10;;;2.20;;
78794;SDS011;68144;50.892;3.064;2023-06-04T09:33:44;4.00;;;2.30;;
78794;SDS011;68144;50.892;3.064;2023-06-04T09:34:15;3.40;;;2.60;;
78794;SDS011;68144;50.892;3.064;2023-06-04T09:34:46;4.00;;;2.10;;
78794;SDS011;68144;50.892;3.064;2023-06-04T09:35:17;3.10;;;2.40;;
78794;SDS011;68144;50.892;3.064;2023-06-04T09:36:29;3.90;;;3.30;;
78794;SDS011;68144;50.892;3.064;2023-06-04T09:37:00;3.30;;;3.00;;
78794;SDS011;68144;50.892;3.064;2023-06-04T09:37:31;4.50;;;2.60;;
78794;SDS011;68144;50.892;3.064;2023-06-04T09:38:04;4.10;;;2.40;;